< < Back
Terminal Aerodrome Forecast


Current Version              Previous Versions:   1  2  3  4  5  6  7  8  9  

Terminal Aerodrome Forecast

730
FTUS44 KMOB 261100
TAFPNS
TAF
KPNS 261120Z 2612/2712 30010KT P6SM SKC
     FM261300 32017G27KT P6SM SCT025 BKN200
     FM270000 32008KT P6SM SCT250=



Latest METAR

565
SAUS70 KWBC 262000 RRA
MTRPNS
METAR KPNS 261953Z 33017G22KT 10SM FEW035 14/02 A2997 RMK AO2 SLP152
T01440022


USA.gov is the U.S. government's official web portal to all federal, state and local government web resources and services.